Time;durP1;ratioP1;P1;durP2;ratioP2;P2;SDS_P1;SDS_P2;PMS_P1;PMS_P2;Temp;Humidity;BMP_temperature;BMP_pressure;BME280_temperature;BME280_humidity;BME280_pressure;Samples;Min_cycle;Max_cycle;Signal;HPM_P1;HPM_P2
2023/03/20 00:02:05;;;;;;;0.10;0.10;;;;;;;;;;5111515;28;20408;-62
2023/03/20 00:04:32;;;;;;;0.50;0.27;;;;;;;;;;5111906;28;20543;-62
2023/03/20 00:06:59;;;;;;;2.10;0.77;;;;;;;;;;5111447;28;20058;-62
2023/03/20 00:09:25;;;;;;;0.57;0.30;;;;;;;;;;5114077;28;20535;-63
2023/03/20 00:11:54;;;;;;;0.60;0.40;;;;;;;;;;5115408;28;20463;-61
2023/03/20 00:14:23;;;;;;;0.40;0.20;;;;;;;;;;5116596;28;20381;-62
2023/03/20 00:16:50;;;;;;;0.47;0.30;;;;;;;;;;5116964;28;20474;-62
2023/03/20 00:19:18;;;;;;;1.60;0.30;;;;;;;;;;5116875;28;20524;-62
2023/03/20 00:21:46;;;;;;;0.87;0.50;;;;;;;;;;5116937;28;20031;-61
2023/03/20 00:24:14;;;;;;;4.23;0.37;;;;;;;;;;5114049;28;20039;-62
2023/03/20 00:26:40;;;;;;;0.33;0.27;;;;;;;;;;5110911;28;20082;-62
2023/03/20 00:29:10;;;;;;;0.90;0.50;;;;;;;;;;5111137;28;20474;-62
2023/03/20 00:31:38;;;;;;;0.70;0.40;;;;;;;;;;5111270;28;20020;-62
2023/03/20 00:34:13;;;;;;;0.53;0.40;;;;;;;;;;5112837;28;20020;-62
2023/03/20 00:36:39;;;;;;;1.90;0.83;;;;;;;;;;5116022;28;20035;-62
2023/03/20 00:39:06;;;;;;;0.50;0.33;;;;;;;;;;5115979;28;20046;-62
2023/03/20 00:41:40;;;;;;;1.23;0.50;;;;;;;;;;5115914;28;20031;-62
2023/03/20 00:44:19;;;;;;;1.40;0.70;;;;;;;;;;5115550;28;20423;-62
2023/03/20 00:46:47;;;;;;;3.50;0.50;;;;;;;;;;5112895;28;20046;-62
2023/03/20 00:49:14;;;;;;;0.10;0.00;;;;;;;;;;5110322;28;20027;-62
2023/03/20 00:51:41;;;;;;;0.10;0.10;;;;;;;;;;5110374;28;20378;-62
2023/03/20 00:54:13;;;;;;;1.13;0.40;;;;;;;;;;5110058;28;20035;-62
2023/03/20 00:56:45;;;;;;;1.70;0.47;;;;;;;;;;5112220;28;20103;-62
2023/03/20 00:59:17;;;;;;;1.73;1.23;;;;;;;;;;5115387;28;20028;-62
2023/03/20 01:01:44;;;;;;;0.40;0.20;;;;;;;;;;5115825;28;20019;-61
2023/03/20 01:04:12;;;;;;;0.77;0.30;;;;;;;;;;5115827;28;20020;-62
2023/03/20 01:06:39;;;;;;;6.00;0.90;;;;;;;;;;5115579;28;20034;-62
2023/03/20 01:09:09;;;;;;;0.93;0.40;;;;;;;;;;5112711;28;20023;-61
2023/03/20 01:11:36;;;;;;;0.40;0.30;;;;;;;;;;5109993;28;20045;-62
2023/03/20 01:14:04;;;;;;;1.60;0.77;;;;;;;;;;5109194;28;20039;-61
2023/03/20 01:16:31;;;;;;;2.70;0.60;;;;;;;;;;5110051;28;20019;-62
2023/03/20 01:18:58;;;;;;;2.17;1.30;;;;;;;;;;5112556;28;20366;-61
2023/03/20 01:21:25;;;;;;;1.17;0.60;;;;;;;;;;5097276;28;20051;-61
2023/03/20 01:23:51;;;;;;;1.43;0.83;;;;;;;;;;5115524;28;20472;-61
2023/03/20 01:26:18;;;;;;;1.37;0.77;;;;;;;;;;5115337;28;20114;-61
2023/03/20 01:28:45;;;;;;;0.90;0.67;;;;;;;;;;5114937;28;20096;-61
2023/03/20 01:31:17;;;;;;;4.03;1.13;;;;;;;;;;5112915;28;20099;-62
2023/03/20 01:33:43;;;;;;;1.47;1.00;;;;;;;;;;5109645;28;20015;-61
2023/03/20 01:36:11;;;;;;;0.97;0.63;;;;;;;;;;5109692;28;20055;-62
2023/03/20 01:38:39;;;;;;;0.50;0.47;;;;;;;;;;5109323;28;20024;-61
2023/03/20 01:41:09;;;;;;;2.00;0.60;;;;;;;;;;5111248;28;20035;-61
2023/03/20 01:43:35;;;;;;;2.67;1.07;;;;;;;;;;5114466;28;20024;-62
2023/03/20 01:46:22;;;;;;;0.83;0.53;;;;;;;;;;5114860;28;20028;-61
2023/03/20 01:48:52;;;;;;;2.23;1.07;;;;;;;;;;5114725;28;20066;-61
2023/03/20 01:51:21;;;;;;;0.43;0.30;;;;;;;;;;5114857;28;20416;-62
2023/03/20 01:53:50;;;;;;;2.60;0.37;;;;;;;;;;5111667;28;20011;-61
2023/03/20 01:56:17;;;;;;;1.77;1.03;;;;;;;;;;5109051;28;20031;-61
2023/03/20 01:58:47;;;;;;;2.90;1.77;;;;;;;;;;5110104;28;20482;-61
2023/03/20 02:01:14;;;;;;;5.13;3.33;;;;;;;;;;5110118;28;20027;-62
2023/03/20 02:03:43;;;;;;;1.43;0.73;;;;;;;;;;5111153;28;20027;-62
2023/03/20 02:06:11;;;;;;;8.10;1.00;;;;;;;;;;5114582;28;20028;-62
2023/03/20 02:08:41;;;;;;;2.33;0.67;;;;;;;;;;5114414;28;20092;-62
2023/03/20 02:11:08;;;;;;;2.27;1.03;;;;;;;;;;5114290;28;20023;-62
2023/03/20 02:13:35;;;;;;;0.67;0.50;;;;;;;;;;5114375;28;20027;-62
2023/03/20 02:16:06;;;;;;;3.27;0.63;;;;;;;;;;5111211;28;20282;-61
2023/03/20 02:18:34;;;;;;;1.50;0.77;;;;;;;;;;5108882;28;20026;-62
2023/03/20 02:21:26;;;;;;;2.43;0.60;;;;;;;;;;5108926;28;20483;-62
2023/03/20 02:23:56;;;;;;;3.27;0.70;;;;;;;;;;5077575;28;20046;-62
2023/03/20 02:26:33;;;;;;;0.27;0.23;;;;;;;;;;5110392;28;20382;-62
2023/03/20 02:29:09;;;;;;;0.47;0.30;;;;;;;;;;5113994;28;20023;-62
2023/03/20 02:31:54;;;;;;;0.57;0.30;;;;;;;;;;5113801;28;20019;-62
2023/03/20 02:34:23;;;;;;;0.75;0.60;;;;;;;;;;5113978;28;20144;-62
2023/03/20 02:37:09;;;;;;;0.50;0.30;;;;;;;;;;5113683;28;20020;-62
2023/03/20 02:39:35;;;;;;;;;;;;;;;;;;5108925;28;20500;-62
2023/03/20 02:42:22;;;;;;;2.10;0.47;;;;;;;;;;5108003;28;20358;-62
2023/03/20 02:45:07;;;;;;;0.20;0.17;;;;;;;;;;5108225;28;20470;-62
2023/03/20 02:47:41;;;;;;;1.15;0.50;;;;;;;;;;5108248;28;20039;-61
2023/03/20 02:50:18;;;;;;;4.43;0.70;;;;;;;;;;5113857;28;20416;-62
2023/03/20 02:52:48;;;;;;;0.87;0.50;;;;;;;;;;5113312;28;20051;-61
2023/03/20 02:55:24;;;;;;;0.73;0.50;;;;;;;;;;5110790;28;20019;-62
2023/03/20 02:57:55;;;;;;;1.00;0.50;;;;;;;;;;5114520;27;20028;-62
2023/03/20 03:00:32;;;;;;;0.33;0.30;;;;;;;;;;5110924;28;20027;-62
2023/03/20 03:03:17;;;;;;;0.80;0.47;;;;;;;;;;5108120;28;20119;-62
2023/03/20 03:05:54;;;;;;;1.23;0.65;;;;;;;;;;5087658;28;20040;-62
2023/03/20 03:08:22;;;;;;;1.03;0.50;;;;;;;;;;5087583;28;20530;-62
2023/03/20 03:10:55;;;;;;;1.33;0.83;;;;;;;;;;5089817;28;20083;-62
2023/03/20 03:13:25;;;;;;;1.90;0.80;;;;;;;;;;5092762;28;20474;-62
2023/03/20 03:15:54;;;;;;;1.40;0.87;;;;;;;;;;5099771;28;20027;-61
2023/03/20 03:18:23;;;;;;;3.63;1.07;;;;;;;;;;5104381;28;20034;-62
2023/03/20 03:20:52;;;;;;;1.53;0.83;;;;;;;;;;5112747;28;20026;-62
2023/03/20 03:23:23;;;;;;;1.27;0.60;;;;;;;;;;5109948;28;20106;-61
2023/03/20 03:25:50;;;;;;;0.40;0.40;;;;;;;;;;5097852;28;20092;-61
2023/03/20 03:28:29;;;;;;;0.47;0.33;;;;;;;;;;5107431;28;20061;-61
2023/03/20 03:30:57;;;;;;;1.73;0.97;;;;;;;;;;5089363;28;20028;-62
2023/03/20 03:33:25;;;;;;;1.70;0.60;;;;;;;;;;5121380;27;20110;-61
2023/03/20 03:35:54;;;;;;;1.23;0.57;;;;;;;;;;5111813;28;20031;-62
2023/03/20 03:38:34;;;;;;;2.10;0.60;;;;;;;;;;5111666;28;20105;-62
2023/03/20 03:41:03;;;;;;;1.27;0.77;;;;;;;;;;5111455;28;20102;-61
2023/03/20 03:43:45;;;;;;;2.90;0.77;;;;;;;;;;5111488;28;20019;-61
2023/03/20 03:46:20;;;;;;;1.83;0.77;;;;;;;;;;5104951;28;20412;-61
2023/03/20 03:48:46;;;;;;;;;;;;;;;;;;5120921;27;20449;-61
2023/03/20 03:51:16;;;;;;;0.93;0.27;;;;;;;;;;5108421;28;20385;-62
2023/03/20 03:53:47;;;;;;;0.20;0.10;;;;;;;;;;5106910;28;20038;-61
2023/03/20 03:56:16;;;;;;;5.93;0.63;;;;;;;;;;5110424;28;20044;-62
2023/03/20 03:58:51;;;;;;;1.17;0.47;;;;;;;;;;5109786;28;20051;-61
2023/03/20 04:01:18;;;;;;;1.17;0.20;;;;;;;;;;5111965;28;20027;-61
2023/03/20 04:03:53;;;;;;;0.23;0.10;;;;;;;;;;5112216;28;20034;-61
2023/03/20 04:06:20;;;;;;;0.20;0.20;;;;;;;;;;5111873;28;20438;-61
2023/03/20 04:08:47;;;;;;;0.10;0.10;;;;;;;;;;5106954;28;20031;-61
2023/03/20 04:11:18;;;;;;;0.00;0.00;;;;;;;;;;5107326;28;20024;-62
2023/03/20 04:13:47;;;;;;;0.77;0.47;;;;;;;;;;5107120;28;20031;-61
2023/03/20 04:16:14;;;;;;;0.53;0.20;;;;;;;;;;5107158;28;20527;-61
2023/03/20 04:18:41;;;;;;;0.00;0.00;;;;;;;;;;5111373;28;20023;-61
2023/03/20 04:21:08;;;;;;;0.00;0.00;;;;;;;;;;5112440;28;20546;-61
2023/03/20 04:23:35;;;;;;;0.10;0.10;;;;;;;;;;5116541;28;20023;-62
2023/03/20 04:26:02;;;;;;;0.10;0.00;;;;;;;;;;5132750;28;20035;-62
2023/03/20 04:28:29;;;;;;;0.30;0.13;;;;;;;;;;5132933;28;20030;-62
2023/03/20 04:30:57;;;;;;;0.40;0.13;;;;;;;;;;5128682;28;20470;-62
2023/03/20 04:33:24;;;;;;;0.00;0.00;;;;;;;;;;5127929;28;20042;-62
2023/03/20 04:35:51;;;;;;;0.20;0.10;;;;;;;;;;5127503;28;20115;-62
2023/03/20 04:38:18;;;;;;;0.20;0.20;;;;;;;;;;5126761;28;20429;-62
2023/03/20 04:40:45;;;;;;;0.00;0.00;;;;;;;;;;5110598;28;20425;-62
2023/03/20 04:43:12;;;;;;;0.60;0.20;;;;;;;;;;5112238;28;20020;-61
2023/03/20 04:45:40;;;;;;;0.20;0.10;;;;;;;;;;5112393;28;20478;-62
2023/03/20 04:48:06;;;;;;;0.20;0.13;;;;;;;;;;5112477;28;20026;-62
2023/03/20 04:50:33;;;;;;;6.20;0.20;;;;;;;;;;5115814;28;20076;-61
2023/03/20 04:53:00;;;;;;;0.00;0.00;;;;;;;;;;5112037;28;20036;-62
2023/03/20 04:55:26;;;;;;;0.20;0.20;;;;;;;;;;5110914;28;20028;-62
2023/03/20 04:57:53;;;;;;;0.67;0.30;;;;;;;;;;5110212;28;20455;-62
2023/03/20 05:00:20;;;;;;;0.27;0.10;;;;;;;;;;5110558;28;20046;-61
2023/03/20 05:02:47;;;;;;;0.37;0.27;;;;;;;;;;5113326;28;20030;-62
2023/03/20 05:05:13;;;;;;;0.20;0.07;;;;;;;;;;5115871;28;20020;-61
2023/03/20 05:07:40;;;;;;;0.07;0.07;;;;;;;;;;5115765;28;20043;-61
2023/03/20 05:10:07;;;;;;;1.70;0.40;;;;;;;;;;5114612;28;20035;-61
2023/03/20 05:12:34;;;;;;;7.13;0.77;;;;;;;;;;5115452;28;20454;-61
2023/03/20 05:15:01;;;;;;;0.87;0.40;;;;;;;;;;5111816;28;20032;-61
2023/03/20 05:17:28;;;;;;;0.20;0.20;;;;;;;;;;5109458;28;20031;-62
2023/03/20 05:19:56;;;;;;;0.10;0.10;;;;;;;;;;5109782;28;20027;-62
2023/03/20 05:22:22;;;;;;;0.40;0.23;;;;;;;;;;5110266;28;20015;-61
2023/03/20 05:24:49;;;;;;;2.97;0.93;;;;;;;;;;5105807;28;20111;-61
2023/03/20 05:27:16;;;;;;;1.50;0.67;;;;;;;;;;5094352;28;20071;-62
2023/03/20 05:29:43;;;;;;;0.50;0.30;;;;;;;;;;5094669;28;20032;-62
2023/03/20 05:32:11;;;;;;;0.80;0.60;;;;;;;;;;5094440;28;20051;-61
2023/03/20 05:34:38;;;;;;;4.90;2.07;;;;;;;;;;5094228;28;20039;-62
2023/03/20 05:37:05;;;;;;;4.47;0.93;;;;;;;;;;5090731;28;20028;-61
2023/03/20 05:39:31;;;;;;;0.20;0.20;;;;;;;;;;5089111;28;20024;-62
2023/03/20 05:41:58;;;;;;;0.30;0.23;;;;;;;;;;5089611;28;20028;-61
2023/03/20 05:44:25;;;;;;;0.87;0.37;;;;;;;;;;5088915;28;20032;-61
2023/03/20 05:46:51;;;;;;;2.23;0.53;;;;;;;;;;5091104;28;20032;-61
2023/03/20 05:49:18;;;;;;;0.00;0.00;;;;;;;;;;5093736;28;20114;-61
2023/03/20 05:51:45;;;;;;;0.50;0.20;;;;;;;;;;5094401;28;20036;-61
2023/03/20 05:54:12;;;;;;;0.10;0.10;;;;;;;;;;5094108;28;20096;-61
2023/03/20 05:56:39;;;;;;;0.73;0.33;;;;;;;;;;5094351;28;20467;-61
2023/03/20 05:59:05;;;;;;;0.40;0.23;;;;;;;;;;5092118;28;20502;-61
2023/03/20 06:01:32;;;;;;;0.13;0.10;;;;;;;;;;5088709;28;20028;-61
2023/03/20 06:03:59;;;;;;;0.20;0.20;;;;;;;;;;5088764;28;20024;-61
2023/03/20 06:06:25;;;;;;;0.20;0.20;;;;;;;;;;5088610;28;20032;-61
2023/03/20 06:08:52;;;;;;;0.10;0.10;;;;;;;;;;5089529;28;20138;-61
2023/03/20 06:11:20;;;;;;;0.00;0.00;;;;;;;;;;5093737;28;20040;-61
2023/03/20 06:13:46;;;;;;;0.10;0.10;;;;;;;;;;5091429;28;20046;-61
2023/03/20 06:16:13;;;;;;;0.30;0.20;;;;;;;;;;5090919;28;20032;-61
2023/03/20 06:18:40;;;;;;;2.90;1.40;;;;;;;;;;5091739;28;20020;-61
2023/03/20 06:21:06;;;;;;;5.23;2.40;;;;;;;;;;5091493;28;20113;-61
2023/03/20 06:23:33;;;;;;;4.13;1.50;;;;;;;;;;5088027;28;20459;-62
2023/03/20 06:26:00;;;;;;;1.47;0.60;;;;;;;;;;5088385;28;20028;-61
2023/03/20 06:28:29;;;;;;;1.20;0.53;;;;;;;;;;5088323;28;20024;-61
2023/03/20 06:30:56;;;;;;;0.37;0.20;;;;;;;;;;5088640;28;20027;-62
2023/03/20 06:33:22;;;;;;;0.30;0.20;;;;;;;;;;5093369;28;20024;-61
2023/03/20 06:35:49;;;;;;;0.10;0.10;;;;;;;;;;5093386;28;20078;-61
2023/03/20 06:38:16;;;;;;;0.83;0.37;;;;;;;;;;5093541;28;20491;-61
2023/03/20 06:40:44;;;;;;;0.67;0.33;;;;;;;;;;5093152;28;20411;-61
2023/03/20 06:43:11;;;;;;;0.17;0.10;;;;;;;;;;5092899;28;20543;-61
2023/03/20 06:45:38;;;;;;;1.73;0.37;;;;;;;;;;5087862;28;20081;-61
2023/03/20 06:48:08;;;;;;;0.10;0.10;;;;;;;;;;5088000;28;20024;-61
2023/03/20 06:50:35;;;;;;;0.47;0.30;;;;;;;;;;5087750;28;20024;-61
2023/03/20 06:53:02;;;;;;;0.20;0.10;;;;;;;;;;5087549;28;20069;-61
2023/03/20 06:55:28;;;;;;;0.43;0.20;;;;;;;;;;5093491;28;20425;-61
2023/03/20 06:57:55;;;;;;;0.37;0.20;;;;;;;;;;5092880;28;20035;-61
2023/03/20 07:00:22;;;;;;;0.30;0.10;;;;;;;;;;5092948;28;20063;-62
2023/03/20 07:02:49;;;;;;;0.57;0.20;;;;;;;;;;5074754;28;20031;-61
2023/03/20 07:05:16;;;;;;;1.27;0.37;;;;;;;;;;5092920;28;20020;-61
2023/03/20 07:07:43;;;;;;;0.93;0.60;;;;;;;;;;5087304;28;20040;-61
2023/03/20 07:10:11;;;;;;;1.33;1.00;;;;;;;;;;5087489;28;20022;-61
2023/03/20 07:12:38;;;;;;;0.23;0.23;;;;;;;;;;5087169;28;20574;-61
2023/03/20 07:15:04;;;;;;;1.57;0.87;;;;;;;;;;5087264;28;20115;-61
2023/03/20 07:17:33;;;;;;;7.20;0.63;;;;;;;;;;5092364;28;20502;-61
2023/03/20 07:20:00;;;;;;;5.60;0.53;;;;;;;;;;5092767;28;20122;-61
2023/03/20 07:22:28;;;;;;;1.20;0.87;;;;;;;;;;5092483;28;20028;-61
2023/03/20 07:24:55;;;;;;;2.70;0.77;;;;;;;;;;5092506;28;20032;-62
2023/03/20 07:27:22;;;;;;;2.63;0.90;;;;;;;;;;5092385;28;20113;-61
2023/03/20 07:29:49;;;;;;;2.20;0.87;;;;;;;;;;5086826;28;20033;-61
2023/03/20 07:32:16;;;;;;;0.60;0.40;;;;;;;;;;5087201;28;20024;-61
2023/03/20 07:34:43;;;;;;;0.80;0.33;;;;;;;;;;5087195;28;20016;-61
2023/03/20 07:37:09;;;;;;;0.00;0.00;;;;;;;;;;5087112;28;20470;-61
2023/03/20 07:39:36;;;;;;;0.10;0.10;;;;;;;;;;5091574;28;20024;-61
2023/03/20 07:42:03;;;;;;;0.00;0.00;;;;;;;;;;5092327;28;20030;-61
2023/03/20 07:44:29;;;;;;;3.30;0.40;;;;;;;;;;5092269;28;20028;-61
2023/03/20 07:46:56;;;;;;;1.97;0.10;;;;;;;;;;5091886;28;20028;-61
2023/03/20 07:49:23;;;;;;;0.07;0.07;;;;;;;;;;5092499;28;20462;-61
2023/03/20 07:51:50;;;;;;;0.63;0.30;;;;;;;;;;5087627;28;20031;-61
2023/03/20 07:54:17;;;;;;;0.00;0.00;;;;;;;;;;5087054;28;20063;-61
2023/03/20 07:56:44;;;;;;;0.00;0.00;;;;;;;;;;5086930;28;20467;-61
2023/03/20 07:59:10;;;;;;;4.60;0.87;;;;;;;;;;5086535;28;20043;-60
2023/03/20 08:01:37;;;;;;;0.33;0.30;;;;;;;;;;5090478;28;20490;-61
2023/03/20 08:04:04;;;;;;;0.00;0.00;;;;;;;;;;5091537;28;20028;-61
2023/03/20 08:06:30;;;;;;;5.00;1.30;;;;;;;;;;5092195;28;20089;-61
2023/03/20 08:08:57;;;;;;;1.93;1.00;;;;;;;;;;5092271;28;20031;-61
2023/03/20 08:11:24;;;;;;;1.30;0.33;;;;;;;;;;5092262;28;20028;-61
2023/03/20 08:13:51;;;;;;;1.97;0.87;;;;;;;;;;5088358;28;20074;-61
2023/03/20 08:16:17;;;;;;;0.30;0.30;;;;;;;;;;5086733;28;20040;-61
2023/03/20 08:18:44;;;;;;;0.00;0.00;;;;;;;;;;5086527;28;20028;-61
2023/03/20 08:21:11;;;;;;;0.00;0.00;;;;;;;;;;5086223;28;20067;-61
2023/03/20 08:23:37;;;;;;;0.00;0.00;;;;;;;;;;5092035;28;20051;-61
2023/03/20 08:26:04;;;;;;;0.17;0.10;;;;;;;;;;5096088;28;20073;-61
2023/03/20 08:28:31;;;;;;;0.03;0.03;;;;;;;;;;5096185;28;20257;-61
2023/03/20 08:30:57;;;;;;;0.10;0.00;;;;;;;;;;5095964;28;20019;-61
2023/03/20 08:33:24;;;;;;;0.00;0.00;;;;;;;;;;5095955;28;20055;-61
2023/03/20 08:35:58;;;;;;;0.20;0.07;;;;;;;;;;5092602;28;20086;-61
2023/03/20 08:38:25;;;;;;;0.27;0.10;;;;;;;;;;5090071;28;20628;-61
2023/03/20 08:40:53;;;;;;;0.00;0.00;;;;;;;;;;5090427;28;20049;-61
2023/03/20 08:43:20;;;;;;;0.17;0.10;;;;;;;;;;5090526;28;20103;-60
2023/03/20 08:45:47;;;;;;;0.20;0.13;;;;;;;;;;5093149;28;20024;-60
2023/03/20 08:48:14;;;;;;;0.00;0.00;;;;;;;;;;5096045;28;20027;-61
2023/03/20 08:50:41;;;;;;;0.10;0.10;;;;;;;;;;5096352;28;20256;-60
2023/03/20 08:53:07;;;;;;;4.93;1.27;;;;;;;;;;5096163;28;20596;-61
2023/03/20 08:55:34;;;;;;;1.43;0.53;;;;;;;;;;5096683;28;20028;-60
2023/03/20 08:58:01;;;;;;;0.90;0.30;;;;;;;;;;5093167;28;20256;-61
2023/03/20 09:00:27;;;;;;;0.77;0.40;;;;;;;;;;5091066;28;20486;-60
2023/03/20 09:02:54;;;;;;;0.70;0.43;;;;;;;;;;5090524;28;20260;-60
2023/03/20 09:05:21;;;;;;;0.00;0.00;;;;;;;;;;5090963;28;20256;-61
2023/03/20 09:07:48;;;;;;;1.83;0.57;;;;;;;;;;5093155;28;20119;-60
2023/03/20 09:10:15;;;;;;;0.23;0.13;;;;;;;;;;5095771;28;20264;-60
2023/03/20 09:12:41;;;;;;;0.50;0.20;;;;;;;;;;5096360;28;20107;-60
2023/03/20 09:15:08;;;;;;;0.93;0.40;;;;;;;;;;5095848;28;20020;-60
2023/03/20 09:17:35;;;;;;;0.50;0.27;;;;;;;;;;5096262;28;20256;-60
2023/03/20 09:20:02;;;;;;;1.53;0.80;;;;;;;;;;5092747;28;21043;-60
2023/03/20 09:22:28;;;;;;;2.43;0.70;;;;;;;;;;5090441;28;20674;-61
2023/03/20 09:24:55;;;;;;;0.50;0.33;;;;;;;;;;5089945;28;20262;-60
2023/03/20 09:27:22;;;;;;;0.37;0.20;;;;;;;;;;5089947;28;20287;-60
2023/03/20 09:29:48;;;;;;;0.20;0.10;;;;;;;;;;5092099;28;20268;-60
2023/03/20 09:32:15;;;;;;;0.40;0.40;;;;;;;;;;5095098;28;20766;-60
2023/03/20 09:34:42;;;;;;;0.07;0.07;;;;;;;;;;5093736;28;20352;-61
2023/03/20 09:37:09;;;;;;;0.50;0.40;;;;;;;;;;5094800;28;20256;-61
2023/03/20 09:39:35;;;;;;;1.43;0.80;;;;;;;;;;5094678;28;20353;-61
2023/03/20 09:42:23;;;;;;;0.90;0.60;;;;;;;;;;5092145;28;20743;-61
2023/03/20 09:44:59;;;;;;;0.17;0.07;;;;;;;;;;5089002;28;20268;-61
2023/03/20 09:47:33;;;;;;;1.57;0.33;;;;;;;;;;5088814;28;20372;-61
2023/03/20 09:49:59;;;;;;;0.10;0.10;;;;;;;;;;5088568;28;20486;-61
2023/03/20 09:52:35;;;;;;;0.87;0.47;;;;;;;;;;5091570;28;20306;-61
2023/03/20 09:55:01;;;;;;;;;;;;;;;;;;5094930;28;20264;-61
2023/03/20 09:57:30;;;;;;;1.13;0.57;;;;;;;;;;5094322;28;19995;-61
2023/03/20 10:00:02;;;;;;;0.10;0.10;;;;;;;;;;5094270;28;20267;-61
2023/03/20 10:02:44;;;;;;;0.17;0.17;;;;;;;;;;5094188;28;20257;-61
2023/03/20 10:05:20;;;;;;;0.20;0.20;;;;;;;;;;5090030;28;20256;-61
2023/03/20 10:07:47;;;;;;;0.10;0.10;;;;;;;;;;5088616;28;20296;-61
2023/03/20 10:10:19;;;;;;;0.37;0.27;;;;;;;;;;5088264;28;20275;-61
2023/03/20 10:12:48;;;;;;;0.57;0.30;;;;;;;;;;5087970;28;20792;-61
2023/03/20 10:15:21;;;;;;;2.13;1.10;;;;;;;;;;5092385;28;20798;-61
2023/03/20 10:18:06;;;;;;;0.80;0.50;;;;;;;;;;5093879;28;20256;-61
2023/03/20 10:20:34;;;;;;;3.05;0.65;;;;;;;;;;5094063;28;20256;-61
2023/03/20 10:23:06;;;;;;;0.37;0.20;;;;;;;;;;5094025;28;20371;-60
2023/03/20 10:25:46;;;;;;;0.10;0.10;;;;;;;;;;5093584;28;20253;-61
2023/03/20 10:28:19;;;;;;;6.80;0.30;;;;;;;;;;5088160;28;20253;-61
2023/03/20 10:30:52;;;;;;;0.30;0.23;;;;;;;;;;5088370;28;20306;-61
2023/03/20 10:33:27;;;;;;;0.30;0.30;;;;;;;;;;5087868;28;20306;-61
2023/03/20 10:36:00;;;;;;;3.30;1.13;;;;;;;;;;5087980;28;20320;-61
2023/03/20 10:38:27;;;;;;;0.93;0.43;;;;;;;;;;5093596;28;20020;-60
2023/03/20 10:40:56;;;;;;;0.10;0.10;;;;;;;;;;5093484;28;20602;-61
2023/03/20 10:43:26;;;;;;;0.30;0.30;;;;;;;;;;5093428;28;20255;-60
2023/03/20 10:46:19;;;;;;;0.20;0.10;;;;;;;;;;5092268;28;20324;-60
2023/03/20 10:48:51;;;;;;;1.60;0.40;;;;;;;;;;5089338;28;20743;-61
2023/03/20 10:51:19;;;;;;;0.30;0.10;;;;;;;;;;5087817;28;20253;-61
2023/03/20 10:53:48;;;;;;;0.10;0.10;;;;;;;;;;5087360;28;20252;-61
2023/03/20 10:56:16;;;;;;;0.20;0.20;;;;;;;;;;5087888;28;20260;-61
2023/03/20 10:58:45;;;;;;;0.10;0.10;;;;;;;;;;5089289;28;20300;-61
2023/03/20 11:01:11;;;;;;;2.07;0.77;;;;;;;;;;5092902;28;20347;-61
2023/03/20 11:03:40;;;;;;;0.23;0.23;;;;;;;;;;5092987;28;20642;-61
2023/03/20 11:06:17;;;;;;;0.23;0.20;;;;;;;;;;5092867;28;20778;-60
2023/03/20 11:08:47;;;;;;;0.20;0.20;;;;;;;;;;5092878;28;20252;-60
2023/03/20 11:11:14;;;;;;;0.53;0.30;;;;;;;;;;5090355;28;20585;-61
2023/03/20 11:13:42;;;;;;;0.33;0.30;;;;;;;;;;5087447;28;20790;-61
2023/03/20 11:16:12;;;;;;;0.20;0.17;;;;;;;;;;5087610;28;20653;-60
2023/03/20 11:18:41;;;;;;;0.57;0.40;;;;;;;;;;5087525;28;20265;-60
2023/03/20 11:21:13;;;;;;;0.10;0.10;;;;;;;;;;5088809;28;20264;-61
2023/03/20 11:23:40;;;;;;;0.20;0.13;;;;;;;;;;5092882;28;20249;-60
2023/03/20 11:26:30;;;;;;;0.00;0.00;;;;;;;;;;5092509;28;20356;-60
2023/03/20 11:28:57;;;;;;;0.30;0.17;;;;;;;;;;5087089;28;20325;-60
2023/03/20 11:31:31;;;;;;;0.33;0.30;;;;;;;;;;5092175;28;20265;-61
2023/03/20 11:34:01;;;;;;;0.47;0.20;;;;;;;;;;5089127;28;20279;-60
2023/03/20 11:36:29;;;;;;;1.77;0.70;;;;;;;;;;5086837;28;20505;-60
2023/03/20 11:39:05;;;;;;;0.30;0.30;;;;;;;;;;5086906;28;20256;-60
2023/03/20 11:41:32;;;;;;;0.40;0.27;;;;;;;;;;5086693;28;20261;-61
2023/03/20 11:43:59;;;;;;;0.37;0.13;;;;;;;;;;5090022;28;20336;-61
2023/03/20 11:46:26;;;;;;;0.50;0.20;;;;;;;;;;5092365;28;20287;-61
2023/03/20 11:49:19;;;;;;;0.10;0.10;;;;;;;;;;5092412;28;20257;-61
2023/03/20 11:51:46;;;;;;;0.30;0.23;;;;;;;;;;5091917;28;20804;-61
2023/03/20 11:54:18;;;;;;;1.40;0.27;;;;;;;;;;5092235;28;20627;-60
2023/03/20 11:56:52;;;;;;;0.93;0.53;;;;;;;;;;5087336;28;20257;-60
2023/03/20 11:59:20;;;;;;;1.43;1.00;;;;;;;;;;5086505;28;20269;-60
2023/03/20 12:01:48;;;;;;;0.20;0.20;;;;;;;;;;5086734;28;20265;-60
2023/03/20 12:04:27;;;;;;;0.60;0.23;;;;;;;;;;5068475;28;20273;-61
2023/03/20 12:07:17;;;;;;;0.40;0.27;;;;;;;;;;5091468;28;20745;-60
2023/03/20 12:09:56;;;;;;;0.10;0.10;;;;;;;;;;5086527;28;20261;-60
2023/03/20 12:12:29;;;;;;;0.30;0.20;;;;;;;;;;5091851;28;20265;-60
2023/03/20 12:15:02;;;;;;;0.80;0.40;;;;;;;;;;5092091;28;20406;-61
2023/03/20 12:17:44;;;;;;;0.07;0.07;;;;;;;;;;5090621;28;20755;-60
2023/03/20 12:20:25;;;;;;;0.33;0.20;;;;;;;;;;5086810;28;20352;-60
2023/03/20 12:23:00;;;;;;;0.37;0.27;;;;;;;;;;5086111;28;20256;-60
2023/03/20 12:25:35;;;;;;;0.77;0.43;;;;;;;;;;5086801;28;20335;-60
2023/03/20 12:28:01;;;;;;;0.08;0.08;;;;;;;;;;5089202;28;20271;-60
2023/03/20 12:30:46;;;;;;;0.20;0.20;;;;;;;;;;5091420;28;20023;-60
2023/03/20 12:33:20;;;;;;;0.20;0.17;;;;;;;;;;5091923;28;20792;-60
2023/03/20 12:35:50;;;;;;;1.03;0.60;;;;;;;;;;5091736;28;20394;-60
2023/03/20 12:38:20;;;;;;;0.40;0.20;;;;;;;;;;5092023;28;20265;-60
2023/03/20 12:40:50;;;;;;;0.53;0.40;;;;;;;;;;5087732;28;20310;-60
2023/03/20 12:43:26;;;;;;;0.70;0.40;;;;;;;;;;5086422;28;20322;-61
2023/03/20 12:46:08;;;;;;;0.30;0.23;;;;;;;;;;5086137;28;20280;-60
2023/03/20 12:48:47;;;;;;;2.77;0.40;;;;;;;;;;5086106;28;20330;-61
2023/03/20 12:51:20;;;;;;;0.77;0.30;;;;;;;;;;5072449;28;20314;-60
2023/03/20 12:53:46;;;;;;;0.13;0.07;;;;;;;;;;5091795;28;20260;-61
2023/03/20 12:56:25;;;;;;;0.20;0.20;;;;;;;;;;5091721;28;20263;-60
2023/03/20 12:58:57;;;;;;;0.87;0.40;;;;;;;;;;5091233;28;20345;-60
2023/03/20 13:01:27;;;;;;;0.37;0.27;;;;;;;;;;5091581;28;20256;-61
2023/03/20 13:03:54;;;;;;;0.67;0.47;;;;;;;;;;5085862;28;20335;-61
2023/03/20 13:06:36;;;;;;;0.10;0.10;;;;;;;;;;5085785;28;20312;-62
2023/03/20 13:09:25;;;;;;;0.43;0.20;;;;;;;;;;5085996;28;20261;-61
2023/03/20 13:11:59;;;;;;;0.47;0.43;;;;;;;;;;5090879;28;20291;-60
2023/03/20 13:14:29;;;;;;;1.90;0.60;;;;;;;;;;5095142;28;20280;-60
2023/03/20 13:17:05;;;;;;;0.30;0.30;;;;;;;;;;5094957;28;20288;-60
2023/03/20 13:19:37;;;;;;;0.07;0.07;;;;;;;;;;5094869;28;20267;-60
2023/03/20 13:22:12;;;;;;;1.83;0.77;;;;;;;;;;5094733;28;20622;-61
2023/03/20 13:24:41;;;;;;;0.50;0.40;;;;;;;;;;5092361;28;20306;-61
2023/03/20 13:27:16;;;;;;;1.30;0.87;;;;;;;;;;5089368;28;20032;-61
2023/03/20 13:29:43;;;;;;;1.58;1.02;;;;;;;;;;5088857;28;20339;-60
2023/03/20 13:32:25;;;;;;;4.80;1.53;;;;;;;;;;5089009;28;20027;-61
2023/03/20 13:34:52;;;;;;;1.80;0.80;;;;;;;;;;5092121;28;20253;-61
2023/03/20 13:37:21;;;;;;;0.77;0.30;;;;;;;;;;5094764;28;20252;-61
2023/03/20 13:39:54;;;;;;;0.70;0.40;;;;;;;;;;5094257;28;20264;-61
2023/03/20 13:42:23;;;;;;;0.33;0.30;;;;;;;;;;5094308;28;20245;-61
2023/03/20 13:44:50;;;;;;;0.27;0.27;;;;;;;;;;5094677;28;20307;-61
2023/03/20 13:47:19;;;;;;;1.17;0.50;;;;;;;;;;5090906;28;20284;-61
2023/03/20 13:49:49;;;;;;;0.30;0.20;;;;;;;;;;5088832;28;20054;-61
2023/03/20 13:52:29;;;;;;;0.17;0.13;;;;;;;;;;5088945;28;20099;-61
2023/03/20 13:55:10;;;;;;;1.83;0.87;;;;;;;;;;5088291;28;20089;-61
2023/03/20 13:57:40;;;;;;;0.77;0.27;;;;;;;;;;5092974;28;20028;-61
2023/03/20 14:00:07;;;;;;;0.77;0.50;;;;;;;;;;5093897;28;20036;-61
2023/03/20 14:02:35;;;;;;;0.43;0.20;;;;;;;;;;5094276;28;20516;-61
2023/03/20 14:05:12;;;;;;;0.17;0.10;;;;;;;;;;5093605;28;20081;-61
2023/03/20 14:07:43;;;;;;;0.70;0.20;;;;;;;;;;5094219;28;20036;-61
2023/03/20 14:10:21;;;;;;;0.00;0.00;;;;;;;;;;5088978;28;20374;-61
2023/03/20 14:12:54;;;;;;;0.20;0.13;;;;;;;;;;5088566;28;20032;-62
2023/03/20 14:15:21;;;;;;;0.97;0.57;;;;;;;;;;5089017;28;20023;-61
2023/03/20 14:17:51;;;;;;;2.07;1.00;;;;;;;;;;5088854;28;20498;-61
2023/03/20 14:20:27;;;;;;;3.40;1.30;;;;;;;;;;5093587;28;20066;-61
2023/03/20 14:22:54;;;;;;;4.07;1.60;;;;;;;;;;5073680;28;20028;-61
2023/03/20 14:25:23;;;;;;;3.10;1.80;;;;;;;;;;5073861;28;20035;-62
2023/03/20 14:27:57;;;;;;;3.33;1.70;;;;;;;;;;5074838;28;20024;-61
2023/03/20 14:30:29;;;;;;;1.35;0.98;;;;;;;;;;5085059;28;20445;-62
2023/03/20 14:33:00;;;;;;;2.23;1.33;;;;;;;;;;5082913;28;20024;-61
2023/03/20 14:35:28;;;;;;;2.00;1.10;;;;;;;;;;5073101;28;20020;-61
2023/03/20 14:38:08;;;;;;;2.87;0.80;;;;;;;;;;5090460;28;20024;-62
2023/03/20 14:40:38;;;;;;;1.03;0.47;;;;;;;;;;5072026;28;20029;-62
2023/03/20 14:43:08;;;;;;;2.60;1.17;;;;;;;;;;5096729;28;20032;-61
2023/03/20 14:45:46;;;;;;;1.17;0.90;;;;;;;;;;5095848;28;20019;-63
2023/03/20 14:48:36;;;;;;;0.97;0.73;;;;;;;;;;5076402;28;20048;-63
2023/03/20 14:51:12;;;;;;;1.57;0.67;;;;;;;;;;5082627;28;20024;-61
2023/03/20 14:53:40;;;;;;;3.87;0.90;;;;;;;;;;5094218;28;20440;-61
2023/03/20 14:56:07;;;;;;;0.60;0.40;;;;;;;;;;5091063;28;20441;-62
2023/03/20 14:58:53;;;;;;;0.37;0.30;;;;;;;;;;5091409;28;20043;-61
2023/03/20 15:01:23;;;;;;;3.67;1.13;;;;;;;;;;5092570;28;20020;-61